createdAt,value
2023-01-22T00:01:33.029Z,15.90
2023-01-22T00:04:01.868Z,18.50
2023-01-22T00:06:32.207Z,14.10
2023-01-22T00:09:04.088Z,14.13
2023-01-22T00:11:33.075Z,12.77
2023-01-22T00:14:01.811Z,13.13
2023-01-22T00:16:30.350Z,13.90
2023-01-22T00:18:59.183Z,14.80
2023-01-22T00:21:27.990Z,13.50
2023-01-22T00:23:56.810Z,14.30
2023-01-22T00:26:25.191Z,13.18
2023-01-22T00:28:54.613Z,11.07
2023-01-22T00:31:24.461Z,14.48
2023-01-22T00:36:38.231Z,12.93
2023-01-22T00:39:06.535Z,14.95
2023-01-22T00:41:38.180Z,11.27
2023-01-22T00:44:06.769Z,15.05
2023-01-22T00:46:35.642Z,12.93
2023-01-22T00:49:04.067Z,12.30
2023-01-22T00:51:33.931Z,13.70
2023-01-22T00:54:02.659Z,11.90
2023-01-22T00:56:32.708Z,13.90
2023-01-22T00:59:01.395Z,11.70
2023-01-22T01:01:30.158Z,11.88
2023-01-22T01:03:59.119Z,13.55
2023-01-22T01:06:29.403Z,12.93
2023-01-22T01:09:02.201Z,10.48
2023-01-22T01:11:32.390Z,14.90
2023-01-22T01:14:02.008Z,13.07
2023-01-22T01:16:32.125Z,12.82
2023-01-22T01:19:02.770Z,10.38
2023-01-22T01:21:31.668Z,13.75
2023-01-22T01:24:01.238Z,10.48
2023-01-22T01:26:30.163Z,11.18
2023-01-22T01:28:58.558Z,13.80
2023-01-22T01:31:28.371Z,11.88
2023-01-22T01:33:59.129Z,11.20
2023-01-22T01:36:47.200Z,10.52
2023-01-22T01:39:16.418Z,11.85
2023-01-22T01:41:45.228Z,10.93
2023-01-22T01:44:20.889Z,12.68
2023-01-22T01:47:01.357Z,11.57
2023-01-22T01:49:37.452Z,12.50
2023-01-22T01:52:09.896Z,12.98
2023-01-22T01:54:40.577Z,11.95
2023-01-22T01:57:13.222Z,11.10
2023-01-22T01:59:41.671Z,12.47
2023-01-22T02:02:10.654Z,10.10
2023-01-22T02:04:39.249Z,11.60
2023-01-22T02:07:08.081Z,10.18
2023-01-22T02:09:36.437Z,9.90
2023-01-22T02:12:05.534Z,11.45
2023-01-22T02:14:37.420Z,11.75
2023-01-22T02:17:16.721Z,13.07
2023-01-22T02:19:45.128Z,13.15
2023-01-22T02:22:24.607Z,11.45
2023-01-22T02:24:53.003Z,11.15
2023-01-22T02:27:21.815Z,14.80
2023-01-22T02:29:51.563Z,13.63
2023-01-22T02:32:20.400Z,10.82
2023-01-22T02:34:48.761Z,12.63
2023-01-22T02:37:17.551Z,9.88
2023-01-22T02:39:45.878Z,10.93
2023-01-22T02:42:14.942Z,12.35
2023-01-22T02:44:44.626Z,9.50
2023-01-22T02:47:14.760Z,11.13
2023-01-22T02:49:43.088Z,11.57
2023-01-22T02:52:13.141Z,10.50
2023-01-22T02:54:41.539Z,11.10
2023-01-22T02:57:10.260Z,10.50
2023-01-22T02:59:38.717Z,9.52
2023-01-22T03:02:11.794Z,9.82
2023-01-22T03:04:40.358Z,12.27
2023-01-22T03:07:11.499Z,11.95
2023-01-22T03:09:39.890Z,8.55
2023-01-22T03:12:09.577Z,14.60
2023-01-22T03:14:57.559Z,10.55
2023-01-22T03:17:45.037Z,10.57
2023-01-22T03:20:32.090Z,10.52
2023-01-22T03:23:00.868Z,13.27
2023-01-22T03:25:29.249Z,10.18
2023-01-22T03:28:08.886Z,9.20
2023-01-22T03:30:39.422Z,12.80
2023-01-22T03:33:09.699Z,10.98
2023-01-22T03:35:39.454Z,9.82
2023-01-22T03:38:19.200Z,9.43
2023-01-22T03:40:48.018Z,12.05
2023-01-22T03:43:16.828Z,9.93
2023-01-22T03:45:45.277Z,12.25
2023-01-22T03:48:17.079Z,10.65
2023-01-22T03:50:45.571Z,11.43
2023-01-22T03:53:15.548Z,10.85
2023-01-22T03:55:43.969Z,11.23
2023-01-22T03:58:12.982Z,11.13
2023-01-22T04:00:41.525Z,11.25
2023-01-22T04:03:10.745Z,10.88
2023-01-22T04:05:41.574Z,9.98
2023-01-22T04:08:10.328Z,11.45
2023-01-22T04:13:13.827Z,12.80
2023-01-22T04:15:45.890Z,11.03
2023-01-22T04:18:27.983Z,12.23
2023-01-22T04:21:16.335Z,11.60
2023-01-22T04:23:52.610Z,11.75
2023-01-22T04:26:21.774Z,10.23
2023-01-22T04:28:50.674Z,11.10
2023-01-22T04:31:22.347Z,10.10
2023-01-22T04:34:01.577Z,10.88
2023-01-22T04:36:33.599Z,10.40
2023-01-22T04:39:02.419Z,11.50
2023-01-22T04:41:30.928Z,11.13
2023-01-22T04:43:59.742Z,11.15
2023-01-22T04:46:30.098Z,10.05
2023-01-22T04:48:59.142Z,11.32
2023-01-22T04:51:27.836Z,10.13
2023-01-22T04:53:56.839Z,9.57
2023-01-22T04:56:25.489Z,8.77
2023-01-22T04:58:54.262Z,8.60
2023-01-22T05:01:23.294Z,10.25
2023-01-22T05:03:52.431Z,9.15
2023-01-22T05:06:21.832Z,8.45
2023-01-22T05:08:50.661Z,8.25
2023-01-22T05:11:19.069Z,8.80
2023-01-22T05:13:58.442Z,10.60
2023-01-22T05:16:27.210Z,9.85
2023-01-22T05:18:56.169Z,12.45
2023-01-22T05:21:24.541Z,8.52
2023-01-22T05:23:53.625Z,11.18
2023-01-22T05:26:22.229Z,9.32
2023-01-22T05:28:56.085Z,9.13
2023-01-22T05:31:42.983Z,11.05
2023-01-22T05:34:26.102Z,8.27
2023-01-22T05:36:54.699Z,9.15
2023-01-22T05:39:25.913Z,9.57
2023-01-22T05:41:56.256Z,9.43
2023-01-22T05:44:26.513Z,9.23
2023-01-22T05:46:56.980Z,8.00
2023-01-22T05:49:34.419Z,9.20
2023-01-22T05:52:02.947Z,9.40
2023-01-22T05:54:31.748Z,8.95
2023-01-22T05:57:01.384Z,6.88
2023-01-22T05:59:31.167Z,9.05
2023-01-22T06:02:04.255Z,7.47
2023-01-22T06:04:35.060Z,8.45
2023-01-22T06:07:08.639Z,7.88
2023-01-22T06:09:38.762Z,7.70
2023-01-22T06:12:07.641Z,8.60
2023-01-22T06:14:37.613Z,9.55
2023-01-22T06:17:07.831Z,8.80
2023-01-22T06:19:40.661Z,8.60
2023-01-22T06:22:11.089Z,8.43
2023-01-22T06:24:48.400Z,8.52
2023-01-22T06:27:18.909Z,8.50
2023-01-22T06:30:01.843Z,7.75
2023-01-22T06:32:30.903Z,7.55
2023-01-22T06:35:02.600Z,11.95
2023-01-22T06:37:31.068Z,8.55
2023-01-22T06:40:00.639Z,10.45
2023-01-22T06:42:42.054Z,6.97
2023-01-22T06:45:11.378Z,7.68
2023-01-22T06:47:46.005Z,6.05
2023-01-22T06:50:16.082Z,5.85
2023-01-22T06:52:44.642Z,7.57
2023-01-22T06:55:13.393Z,6.95
2023-01-22T06:57:41.903Z,6.75
2023-01-22T07:00:11.452Z,7.43
2023-01-22T07:02:41.547Z,6.38
2023-01-22T07:05:11.423Z,10.70
2023-01-22T07:07:39.793Z,6.22
2023-01-22T07:10:10.211Z,8.10
2023-01-22T07:12:38.684Z,5.38
2023-01-22T07:15:08.147Z,7.55
2023-01-22T07:17:37.754Z,11.77
2023-01-22T07:20:06.863Z,7.53
2023-01-22T07:22:35.341Z,8.98
2023-01-22T07:25:04.357Z,5.25
2023-01-22T07:27:35.105Z,5.88
2023-01-22T07:30:06.859Z,7.07
2023-01-22T07:32:36.023Z,4.97
2023-01-22T07:35:05.202Z,7.13
2023-01-22T07:37:33.678Z,6.43
2023-01-22T07:40:03.042Z,5.55
2023-01-22T07:42:31.530Z,6.90
2023-01-22T07:45:00.357Z,6.63
2023-01-22T07:47:28.848Z,6.15
2023-01-22T07:49:57.611Z,6.75
2023-01-22T07:52:26.027Z,4.88
2023-01-22T07:54:55.780Z,5.38
2023-01-22T07:57:24.316Z,8.45
2023-01-22T07:59:53.092Z,7.53
2023-01-22T08:02:21.513Z,4.50
2023-01-22T08:04:50.243Z,6.82
2023-01-22T08:07:19.635Z,5.75
2023-01-22T08:09:48.274Z,9.05
2023-01-22T08:12:16.684Z,5.97
2023-01-22T08:14:45.476Z,6.22
2023-01-22T08:17:14.653Z,6.38
2023-01-22T08:19:44.389Z,5.32
2023-01-22T08:22:12.882Z,6.20
2023-01-22T08:24:43.135Z,9.77
2023-01-22T08:27:12.633Z,5.05
2023-01-22T08:29:41.271Z,4.70
2023-01-22T08:32:09.816Z,5.97
2023-01-22T08:34:38.612Z,6.05
2023-01-22T08:37:07.650Z,5.80
2023-01-22T08:39:36.407Z,5.70
2023-01-22T08:42:04.851Z,5.22
2023-01-22T08:44:33.661Z,8.43
2023-01-22T08:47:02.010Z,8.80
2023-01-22T08:49:32.005Z,5.22
2023-01-22T08:52:00.793Z,7.35
2023-01-22T08:54:30.539Z,6.45
2023-01-22T08:56:58.941Z,7.60
2023-01-22T08:59:29.970Z,4.40
2023-01-22T09:02:00.283Z,8.13
2023-01-22T09:04:29.240Z,7.53
2023-01-22T09:06:57.681Z,6.50
2023-01-22T09:09:26.446Z,5.53
2023-01-22T09:11:54.930Z,8.68
2023-01-22T09:14:23.861Z,5.75
2023-01-22T09:16:52.324Z,6.68
2023-01-22T09:19:21.081Z,8.88
2023-01-22T09:21:49.570Z,10.38
2023-01-22T09:24:18.357Z,7.55
2023-01-22T09:26:46.789Z,13.77
2023-01-22T09:29:15.702Z,13.20
2023-01-22T09:31:44.168Z,17.63
2023-01-22T09:34:12.951Z,15.88
2023-01-22T09:36:43.132Z,19.02
2023-01-22T09:39:11.888Z,9.50
2023-01-22T09:41:43.428Z,11.75
2023-01-22T09:44:18.762Z,19.17
2023-01-22T09:47:04.591Z,10.90
2023-01-22T09:49:45.198Z,8.75
2023-01-22T09:52:13.561Z,16.92
2023-01-22T09:54:44.093Z,13.90
2023-01-22T09:57:30.000Z,9.18
2023-01-22T10:00:00.990Z,13.35
2023-01-22T10:02:42.695Z,12.95
2023-01-22T10:05:23.555Z,11.38
2023-01-22T10:07:55.022Z,6.78
2023-01-22T10:10:27.062Z,8.55
2023-01-22T10:13:24.885Z,9.90
2023-01-22T10:15:55.215Z,9.70
2023-01-22T10:18:46.396Z,9.02
2023-01-22T10:21:26.569Z,6.40
2023-01-22T10:23:57.100Z,7.43
2023-01-22T10:26:25.745Z,10.68
2023-01-22T10:28:58.837Z,7.30
2023-01-22T10:31:34.508Z,10.25
2023-01-22T10:34:15.984Z,6.63
2023-01-22T10:36:52.674Z,5.43
2023-01-22T10:39:21.287Z,4.43
2023-01-22T10:41:51.282Z,8.93
2023-01-22T10:44:26.208Z,7.57
2023-01-22T10:46:55.924Z,6.15
2023-01-22T10:49:28.312Z,5.10
2023-01-22T10:52:05.559Z,7.55
2023-01-22T10:54:39.952Z,9.27
2023-01-22T10:57:25.532Z,8.27
2023-01-22T11:00:13.964Z,9.45
2023-01-22T11:02:44.683Z,6.90
2023-01-22T11:05:23.665Z,6.70
2023-01-22T11:08:06.057Z,9.60
2023-01-22T11:10:51.468Z,7.07
2023-01-22T11:13:30.582Z,10.57
2023-01-22T11:16:02.714Z,5.30
2023-01-22T11:19:00.209Z,3.95
2023-01-22T11:21:50.679Z,9.73
2023-01-22T11:24:27.149Z,8.15
2023-01-22T11:27:32.521Z,6.78
2023-01-22T11:30:37.973Z,11.45
2023-01-22T11:34:09.080Z,10.15
2023-01-22T11:37:09.637Z,9.20
2023-01-22T11:40:10.711Z,15.13
2023-01-22T11:43:21.974Z,8.50
2023-01-22T11:46:31.586Z,12.68
2023-01-22T11:49:15.342Z,6.35
2023-01-22T11:51:55.488Z,9.38
2023-01-22T11:54:47.208Z,4.57
2023-01-22T11:57:37.632Z,12.20
2023-01-22T12:00:46.230Z,12.27
2023-01-22T12:03:33.432Z,12.57
2023-01-22T12:06:24.799Z,9.48
2023-01-22T12:09:18.559Z,6.45
2023-01-22T12:12:42.729Z,7.88
2023-01-22T12:15:29.247Z,6.80
2023-01-22T12:18:23.511Z,3.75
2023-01-22T12:21:12.654Z,6.03
2023-01-22T12:23:46.728Z,4.90
2023-01-22T12:26:31.201Z,7.50
2023-01-22T12:29:29.611Z,10.07
2023-01-22T12:32:00.060Z,6.22
2023-01-22T12:34:34.651Z,6.80
2023-01-22T12:37:03.131Z,11.52
2023-01-22T12:39:37.159Z,6.10
2023-01-22T12:42:39.113Z,7.25
2023-01-22T12:45:21.454Z,4.65
2023-01-22T12:48:18.171Z,8.15
2023-01-22T12:51:05.276Z,11.25
2023-01-22T12:53:34.957Z,5.30
2023-01-22T12:56:10.696Z,6.68
2023-01-22T12:58:42.246Z,17.33
2023-01-22T13:01:14.133Z,5.15
2023-01-22T13:03:42.669Z,7.43
2023-01-22T13:06:35.455Z,3.25
2023-01-22T13:09:05.702Z,4.07
2023-01-22T13:11:39.034Z,3.15
2023-01-22T13:14:31.370Z,4.13
2023-01-22T13:17:04.227Z,7.57
2023-01-22T13:19:45.289Z,7.15
2023-01-22T13:22:23.552Z,2.97
2023-01-22T13:24:58.267Z,4.85
2023-01-22T13:27:33.517Z,4.15
2023-01-22T13:30:27.052Z,3.47
2023-01-22T13:33:14.400Z,2.75
2023-01-22T13:35:46.692Z,3.05
2023-01-22T13:38:32.952Z,3.28
2023-01-22T13:41:09.181Z,6.88
2023-01-22T13:43:39.608Z,2.92
2023-01-22T13:46:08.081Z,3.10
2023-01-22T13:48:36.834Z,5.78
2023-01-22T13:51:14.863Z,10.90
2023-01-22T13:53:54.536Z,9.70
2023-01-22T13:56:26.953Z,2.15
2023-01-22T13:59:35.531Z,6.17
2023-01-22T14:02:32.520Z,3.53
2023-01-22T14:05:01.818Z,4.45
2023-01-22T14:07:34.612Z,3.10
2023-01-22T14:10:22.809Z,4.55
2023-01-22T14:13:08.004Z,6.15
2023-01-22T14:15:38.553Z,4.43
2023-01-22T14:18:17.810Z,4.85
2023-01-22T14:20:47.561Z,8.32
2023-01-22T14:23:16.315Z,4.97
2023-01-22T14:25:50.269Z,3.42
2023-01-22T14:28:19.261Z,3.70
2023-01-22T14:30:49.012Z,2.33
2023-01-22T14:33:24.181Z,2.72
2023-01-22T14:35:53.828Z,3.08
2023-01-22T14:38:23.164Z,2.72
2023-01-22T14:40:52.311Z,3.75
2023-01-22T14:43:21.048Z,4.97
2023-01-22T14:45:51.999Z,3.17
2023-01-22T14:48:20.835Z,4.25
2023-01-22T14:50:50.239Z,2.05
2023-01-22T14:53:19.603Z,7.05
2023-01-22T14:55:49.503Z,3.38
2023-01-22T14:58:18.066Z,8.95
2023-01-22T15:00:48.068Z,2.33
2023-01-22T15:03:16.675Z,2.85
2023-01-22T15:05:45.708Z,4.07
2023-01-22T15:08:14.179Z,3.33
2023-01-22T15:10:42.993Z,2.33
2023-01-22T15:13:11.523Z,5.00
2023-01-22T15:15:40.432Z,4.13
2023-01-22T15:18:08.925Z,3.85
2023-01-22T15:20:38.342Z,3.22
2023-01-22T15:23:06.842Z,2.95
2023-01-22T15:25:36.842Z,1.73
2023-01-22T15:28:05.666Z,4.82
2023-01-22T15:30:34.614Z,3.42
2023-01-22T15:33:03.163Z,3.13
2023-01-22T15:35:33.286Z,2.42
2023-01-22T15:38:05.688Z,2.50
2023-01-22T15:40:39.690Z,3.35
2023-01-22T15:43:08.334Z,3.75
2023-01-22T15:45:37.237Z,2.40
2023-01-22T15:48:06.103Z,3.08
2023-01-22T15:50:35.112Z,3.50
2023-01-22T15:53:03.738Z,3.78
2023-01-22T15:55:32.657Z,4.05
2023-01-22T15:58:01.217Z,3.55
2023-01-22T16:00:33.322Z,5.65
2023-01-22T16:03:01.911Z,5.50
2023-01-22T16:05:30.771Z,4.32
2023-01-22T16:07:59.364Z,3.67
2023-01-22T16:10:28.202Z,4.53
2023-01-22T16:12:56.787Z,3.63
2023-01-22T16:15:25.585Z,3.72
2023-01-22T16:17:54.703Z,5.63
2023-01-22T16:20:23.664Z,4.63
2023-01-22T16:22:52.172Z,4.53
2023-01-22T16:25:21.035Z,4.85
2023-01-22T16:27:49.481Z,2.25
2023-01-22T16:30:18.912Z,4.70
2023-01-22T16:32:48.341Z,4.32
2023-01-22T16:35:19.193Z,3.00
2023-01-22T16:37:47.642Z,3.45
2023-01-22T16:40:18.669Z,2.83
2023-01-22T16:43:00.228Z,3.47
2023-01-22T16:45:29.061Z,2.38
2023-01-22T16:47:57.873Z,2.58
2023-01-22T16:50:26.847Z,4.88
2023-01-22T16:52:55.335Z,3.45
2023-01-22T16:55:24.216Z,4.25
2023-01-22T16:57:53.822Z,3.83
2023-01-22T17:00:22.820Z,3.95
2023-01-22T17:02:51.441Z,4.32
2023-01-22T17:05:21.728Z,3.67
2023-01-22T17:07:50.126Z,2.65
2023-01-22T17:10:19.231Z,6.97
2023-01-22T17:12:47.804Z,4.15
2023-01-22T17:15:18.721Z,4.70
2023-01-22T17:17:47.784Z,3.45
2023-01-22T17:20:17.130Z,5.13
2023-01-22T17:22:46.054Z,4.03
2023-01-22T17:25:15.459Z,2.75
2023-01-22T17:27:43.985Z,3.65
2023-01-22T17:30:13.491Z,3.53
2023-01-22T17:32:41.934Z,3.70
2023-01-22T17:35:11.751Z,4.05
2023-01-22T17:37:40.302Z,3.83
2023-01-22T17:40:10.481Z,4.25
2023-01-22T17:42:39.063Z,3.50
2023-01-22T17:45:09.245Z,2.35
2023-01-22T17:47:37.794Z,2.35
2023-01-22T17:50:09.571Z,3.47
2023-01-22T17:52:38.111Z,2.30
2023-01-22T17:55:07.793Z,5.28
2023-01-22T17:57:36.330Z,4.20
2023-01-22T18:00:06.079Z,3.60
2023-01-22T18:02:36.468Z,2.85
2023-01-22T18:05:05.899Z,4.63
2023-01-22T18:07:35.570Z,7.85
2023-01-22T18:10:04.960Z,6.20
2023-01-22T18:12:33.430Z,3.35
2023-01-22T18:15:02.209Z,2.20
2023-01-22T18:17:30.639Z,2.45
2023-01-22T18:19:59.454Z,3.08
2023-01-22T18:22:28.061Z,3.75
2023-01-22T18:24:59.224Z,6.05
2023-01-22T18:27:28.063Z,11.38
2023-01-22T18:29:56.864Z,7.10
2023-01-22T18:32:25.407Z,3.40
2023-01-22T18:34:55.559Z,4.57
2023-01-22T18:37:24.081Z,4.85
2023-01-22T18:39:52.969Z,5.80
2023-01-22T18:42:21.480Z,5.20
2023-01-22T18:44:50.289Z,4.07
2023-01-22T18:47:18.765Z,5.93
2023-01-22T18:49:49.503Z,5.80
2023-01-22T18:52:17.996Z,4.32
2023-01-22T18:54:46.909Z,3.65
2023-01-22T18:57:15.271Z,4.43
2023-01-22T18:59:44.114Z,7.95
2023-01-22T19:02:16.557Z,4.35
2023-01-22T19:04:47.386Z,7.25
2023-01-22T19:07:15.798Z,5.97
2023-01-22T19:09:44.619Z,4.55
2023-01-22T19:12:15.545Z,5.95
2023-01-22T19:14:44.419Z,4.60
2023-01-22T19:17:13.020Z,5.85
2023-01-22T19:19:41.909Z,4.47
2023-01-22T19:22:10.351Z,7.85
2023-01-22T19:24:39.150Z,4.03
2023-01-22T19:27:08.407Z,5.13
2023-01-22T19:29:37.259Z,4.78
2023-01-22T19:32:06.069Z,6.10
2023-01-22T19:34:34.913Z,4.97
2023-01-22T19:37:03.578Z,5.10
2023-01-22T19:39:33.109Z,4.30
2023-01-22T19:42:03.192Z,7.10
2023-01-22T19:44:33.083Z,5.35
2023-01-22T19:47:02.165Z,4.68
2023-01-22T19:49:31.093Z,4.15
2023-01-22T19:51:59.548Z,5.55
2023-01-22T19:54:28.431Z,5.85
2023-01-22T19:56:57.135Z,5.20
2023-01-22T19:59:25.992Z,5.35
2023-01-22T20:01:54.534Z,7.88
2023-01-22T20:04:26.715Z,6.07
2023-01-22T20:07:00.996Z,5.85
2023-01-22T20:09:30.480Z,5.78
2023-01-22T20:11:59.226Z,6.85
2023-01-22T20:14:34.448Z,6.18
2023-01-22T20:17:04.324Z,4.10
2023-01-22T20:19:32.891Z,5.25
2023-01-22T20:22:04.538Z,4.22
2023-01-22T20:24:34.231Z,7.85
2023-01-22T20:27:03.036Z,5.40
2023-01-22T20:29:31.549Z,5.20
2023-01-22T20:32:00.458Z,6.90
2023-01-22T20:34:29.480Z,4.55
2023-01-22T20:36:58.292Z,5.80
2023-01-22T20:39:26.895Z,6.13
2023-01-22T20:41:55.792Z,5.35
2023-01-22T20:44:24.433Z,5.10
2023-01-22T20:46:53.334Z,5.80
2023-01-22T20:49:21.748Z,5.70
2023-01-22T20:51:50.759Z,7.15
2023-01-22T20:54:19.751Z,8.23
2023-01-22T20:56:48.719Z,9.00
2023-01-22T20:59:18.725Z,6.68
2023-01-22T21:01:47.634Z,6.10
2023-01-22T21:04:16.429Z,6.40
2023-01-22T21:06:45.181Z,5.68
2023-01-22T21:09:13.943Z,6.63
2023-01-22T21:11:42.948Z,5.25
2023-01-22T21:14:16.639Z,5.82
2023-01-22T21:16:45.510Z,6.90
2023-01-22T21:19:23.771Z,6.63
2023-01-22T21:21:53.028Z,5.05
2023-01-22T21:24:21.936Z,5.68
2023-01-22T21:26:50.855Z,7.15
2023-01-22T21:29:21.423Z,6.40
2023-01-22T21:31:52.414Z,6.15
2023-01-22T21:34:23.299Z,7.85
2023-01-22T21:36:54.663Z,5.50
2023-01-22T21:39:25.176Z,6.75
2023-01-22T21:42:14.636Z,9.00
2023-01-22T21:45:02.775Z,5.88
2023-01-22T21:47:31.540Z,5.15
2023-01-22T21:50:00.180Z,7.78
2023-01-22T21:52:29.252Z,7.72
2023-01-22T21:54:57.715Z,5.93
2023-01-22T21:57:26.655Z,5.47
2023-01-22T21:59:55.058Z,7.07
2023-01-22T22:02:23.967Z,4.72
2023-01-22T22:04:52.415Z,10.10
2023-01-22T22:07:21.205Z,6.05
2023-01-22T22:09:49.703Z,6.20
2023-01-22T22:12:18.502Z,6.90
2023-01-22T22:14:46.939Z,7.68
2023-01-22T22:17:15.749Z,6.72
2023-01-22T22:19:44.196Z,5.85
2023-01-22T22:22:12.994Z,19.42
2023-01-22T22:24:41.543Z,7.45
2023-01-22T22:27:10.384Z,5.72
2023-01-22T22:29:38.886Z,9.27
2023-01-22T22:32:07.759Z,7.05
2023-01-22T22:34:36.155Z,7.85
2023-01-22T22:37:06.241Z,8.23
2023-01-22T22:39:34.764Z,8.57
2023-01-22T22:42:03.625Z,9.00
2023-01-22T22:44:32.091Z,7.85
2023-01-22T22:47:00.956Z,9.27
2023-01-22T22:49:29.375Z,7.63
2023-01-22T22:51:58.130Z,9.25
2023-01-22T22:54:26.576Z,9.70
2023-01-22T22:56:55.325Z,8.23
2023-01-22T22:59:23.776Z,8.93
2023-01-22T23:01:52.507Z,10.68
2023-01-22T23:04:20.983Z,11.07
2023-01-22T23:06:49.778Z,8.45
2023-01-22T23:09:20.139Z,9.43
2023-01-22T23:11:52.192Z,8.32
2023-01-22T23:14:20.680Z,10.27
2023-01-22T23:16:50.677Z,9.27
2023-01-22T23:19:24.775Z,9.32
2023-01-22T23:21:58.680Z,6.35
2023-01-22T23:24:27.928Z,9.75
2023-01-22T23:26:58.024Z,8.13
2023-01-22T23:29:29.669Z,8.93
2023-01-22T23:31:58.757Z,9.45
2023-01-22T23:34:27.232Z,8.00
2023-01-22T23:36:56.089Z,9.23
2023-01-22T23:39:24.543Z,8.23
2023-01-22T23:41:54.022Z,7.10
2023-01-22T23:44:22.575Z,9.05
2023-01-22T23:46:51.952Z,8.57
2023-01-22T23:49:20.413Z,10.25
2023-01-22T23:51:49.337Z,7.60
2023-01-22T23:54:17.883Z,7.55
2023-01-22T23:56:46.707Z,9.50
2023-01-22T23:59:15.167Z,6.75
